createdAt,value
2022-12-28T00:01:29.505Z,2.20
2022-12-28T00:03:59.152Z,1.60
2022-12-28T00:06:26.679Z,1.60
2022-12-28T00:08:55.231Z,1.73
2022-12-28T00:11:28.374Z,2.10
2022-12-28T00:13:59.128Z,1.67
2022-12-28T00:16:30.347Z,1.73
2022-12-28T00:18:59.104Z,1.48
2022-12-28T00:21:27.304Z,1.90
2022-12-28T00:23:57.562Z,2.00
2022-12-28T00:28:55.590Z,1.73
2022-12-28T00:31:27.269Z,1.40
2022-12-28T00:33:54.310Z,1.80
2022-12-28T00:36:21.278Z,2.00
2022-12-28T00:38:48.251Z,2.10
2022-12-28T00:41:15.144Z,1.92
2022-12-28T00:43:42.093Z,2.03
2022-12-28T00:46:09.265Z,1.83
2022-12-28T00:48:36.225Z,2.10
2022-12-28T00:51:07.250Z,1.80
2022-12-28T00:56:18.168Z,2.25
2022-12-28T00:58:45.955Z,1.42
2022-12-28T01:01:16.274Z,1.80
2022-12-28T01:03:43.592Z,1.90
2022-12-28T01:06:12.377Z,1.27
2022-12-28T01:08:40.372Z,1.80
2022-12-28T01:11:13.709Z,1.52
2022-12-28T01:13:40.643Z,1.80
2022-12-28T01:16:16.438Z,1.30
2022-12-28T01:18:44.773Z,1.30
2022-12-28T01:21:14.318Z,1.77
2022-12-28T01:23:41.346Z,1.30
2022-12-28T01:26:08.401Z,2.25
2022-12-28T01:28:35.815Z,1.60
2022-12-28T01:31:14.871Z,1.73
2022-12-28T01:33:42.608Z,1.40
2022-12-28T01:36:16.127Z,1.63
2022-12-28T01:38:44.316Z,2.15
2022-12-28T01:41:14.944Z,1.67
2022-12-28T01:43:47.860Z,1.98
2022-12-28T01:46:18.977Z,2.30
2022-12-28T01:49:05.415Z,1.35
2022-12-28T01:51:42.179Z,1.65
2022-12-28T01:54:09.585Z,1.00
2022-12-28T01:56:37.055Z,0.98
2022-12-28T01:59:04.007Z,1.20
2022-12-28T02:01:31.141Z,1.33
2022-12-28T02:03:58.450Z,1.20
2022-12-28T02:06:25.303Z,1.40
2022-12-28T02:09:09.402Z,1.40
2022-12-28T02:11:37.640Z,1.40
2022-12-28T02:14:06.242Z,1.73
2022-12-28T02:16:33.152Z,1.70
2022-12-28T02:19:00.121Z,1.88
2022-12-28T02:21:47.922Z,1.80
2022-12-28T02:24:35.078Z,1.42
2022-12-28T02:27:33.921Z,1.17
2022-12-28T02:30:08.586Z,1.33
2022-12-28T02:32:41.325Z,1.33
2022-12-28T02:35:30.244Z,1.52
2022-12-28T02:38:05.329Z,1.50
2022-12-28T02:40:47.394Z,1.50
2022-12-28T02:43:15.136Z,1.27
2022-12-28T02:46:03.138Z,1.48
2022-12-28T02:49:03.092Z,1.30
2022-12-28T02:51:35.518Z,1.10
2022-12-28T02:54:05.222Z,1.83
2022-12-28T02:56:58.789Z,1.70
2022-12-28T02:59:36.798Z,1.17
2022-12-28T03:02:43.017Z,1.73
2022-12-28T03:05:41.649Z,1.63
2022-12-28T03:08:19.921Z,1.83
2022-12-28T03:10:56.377Z,1.60
2022-12-28T03:13:45.446Z,1.50
2022-12-28T03:16:58.411Z,1.75
2022-12-28T03:19:51.128Z,1.45
2022-12-28T03:22:38.358Z,1.77
2022-12-28T03:25:31.382Z,1.00
2022-12-28T03:28:18.019Z,1.35
2022-12-28T03:31:06.190Z,1.70
2022-12-28T03:33:40.910Z,1.55
2022-12-28T03:36:37.766Z,1.98
2022-12-28T03:39:43.224Z,1.20
2022-12-28T03:42:53.268Z,1.75
2022-12-28T03:45:46.498Z,1.70
2022-12-28T03:48:16.369Z,1.63
2022-12-28T03:50:46.141Z,2.53
2022-12-28T03:53:13.717Z,1.95
2022-12-28T03:55:40.740Z,1.58
2022-12-28T03:58:07.662Z,2.00
2022-12-28T04:00:34.857Z,1.70
2022-12-28T04:03:01.794Z,1.73
2022-12-28T04:05:30.919Z,1.60
2022-12-28T04:07:57.773Z,1.85
2022-12-28T04:10:24.694Z,1.42
2022-12-28T04:12:56.021Z,1.92
2022-12-28T04:15:23.139Z,1.95
2022-12-28T04:17:50.004Z,2.00
2022-12-28T04:20:17.043Z,2.28
2022-12-28T04:22:44.712Z,2.20
2022-12-28T04:25:11.639Z,1.75
2022-12-28T04:27:38.531Z,2.42
2022-12-28T04:30:06.116Z,2.35
2022-12-28T04:32:32.975Z,2.50
2022-12-28T04:34:59.820Z,2.55
2022-12-28T04:37:26.660Z,3.13
2022-12-28T04:39:56.138Z,2.38
2022-12-28T04:42:24.978Z,2.58
2022-12-28T04:44:51.972Z,2.15
2022-12-28T04:47:18.853Z,2.65
2022-12-28T04:49:45.705Z,2.50
2022-12-28T04:52:12.899Z,3.15
2022-12-28T04:54:39.801Z,3.10
2022-12-28T04:57:06.995Z,2.70
2022-12-28T04:59:34.005Z,2.60
2022-12-28T05:02:01.088Z,3.03
2022-12-28T05:04:28.086Z,2.42
2022-12-28T05:06:54.952Z,2.42
2022-12-28T05:09:21.844Z,2.95
2022-12-28T05:11:49.071Z,3.00
2022-12-28T05:14:16.232Z,2.67
2022-12-28T05:16:43.215Z,2.67
2022-12-28T05:19:10.139Z,2.90
2022-12-28T05:21:37.037Z,3.10
2022-12-28T05:24:04.242Z,2.95
2022-12-28T05:26:31.167Z,3.05
2022-12-28T05:28:59.001Z,3.50
2022-12-28T05:31:26.974Z,3.58
2022-12-28T05:33:54.633Z,3.30
2022-12-28T05:36:26.882Z,3.03
2022-12-28T05:38:55.098Z,2.45
2022-12-28T05:41:27.791Z,3.35
2022-12-28T05:43:55.956Z,2.70
2022-12-28T05:46:32.470Z,3.35
2022-12-28T05:49:00.332Z,3.67
2022-12-28T05:51:32.703Z,4.03
2022-12-28T05:54:01.242Z,5.47
2022-12-28T05:56:29.521Z,5.43
2022-12-28T05:59:01.901Z,5.70
2022-12-28T06:01:34.585Z,4.55
2022-12-28T06:04:04.624Z,4.25
2022-12-28T06:06:32.901Z,3.40
2022-12-28T06:09:00.614Z,2.47
2022-12-28T06:11:28.660Z,3.25
2022-12-28T06:13:56.158Z,4.18
2022-12-28T06:16:25.792Z,3.65
2022-12-28T06:18:53.296Z,3.67
2022-12-28T06:21:23.385Z,3.40
2022-12-28T06:23:51.052Z,3.57
2022-12-28T06:26:20.561Z,3.33
2022-12-28T06:28:48.186Z,3.90
2022-12-28T06:31:18.142Z,3.60
2022-12-28T06:33:45.955Z,3.38
2022-12-28T06:36:30.579Z,3.88
2022-12-28T06:38:59.111Z,4.25
2022-12-28T06:41:27.150Z,3.50
2022-12-28T06:43:54.629Z,3.58
2022-12-28T06:46:23.716Z,4.47
2022-12-28T06:48:51.180Z,3.30
2022-12-28T06:51:26.749Z,3.90
2022-12-28T06:53:54.298Z,4.72
2022-12-28T06:56:31.002Z,4.55
2022-12-28T06:59:02.739Z,5.47
2022-12-28T07:01:34.135Z,4.55
2022-12-28T07:04:03.261Z,3.22
2022-12-28T07:06:34.043Z,3.08
2022-12-28T07:09:03.346Z,1.70
2022-12-28T07:11:30.662Z,4.40
2022-12-28T07:13:57.695Z,3.40
2022-12-28T07:16:26.147Z,3.20
2022-12-28T07:18:53.185Z,2.58
2022-12-28T07:21:32.923Z,2.08
2022-12-28T07:23:59.967Z,2.85
2022-12-28T07:26:32.280Z,2.63
2022-12-28T07:29:01.619Z,3.13
2022-12-28T07:31:31.586Z,2.63
2022-12-28T07:34:00.124Z,2.80
2022-12-28T07:36:28.942Z,2.55
2022-12-28T07:38:56.258Z,3.42
2022-12-28T07:41:25.576Z,3.80
2022-12-28T07:43:52.715Z,3.60
2022-12-28T07:46:26.051Z,3.38
2022-12-28T07:48:53.585Z,2.55
2022-12-28T07:51:20.420Z,3.38
2022-12-28T07:53:49.409Z,2.72
2022-12-28T07:56:16.871Z,2.53
2022-12-28T08:01:15.759Z,3.53
2022-12-28T08:06:18.860Z,4.10
2022-12-28T08:08:47.617Z,4.53
2022-12-28T08:11:21.707Z,4.72
2022-12-28T08:13:50.871Z,5.00
2022-12-28T08:16:19.307Z,4.35
2022-12-28T08:18:47.047Z,5.00
2022-12-28T08:21:18.663Z,4.50
2022-12-28T08:23:46.473Z,4.50
2022-12-28T08:26:22.941Z,3.70
2022-12-28T08:28:51.824Z,3.40
2022-12-28T08:31:22.134Z,3.53
2022-12-28T08:33:49.713Z,3.88
2022-12-28T08:36:16.938Z,3.58
2022-12-28T08:38:45.105Z,4.30
2022-12-28T08:41:17.704Z,4.80
2022-12-28T08:43:45.523Z,5.05
2022-12-28T08:46:18.067Z,5.10
2022-12-28T08:48:46.334Z,4.47
2022-12-28T08:51:17.314Z,3.80
2022-12-28T08:56:17.423Z,3.97
2022-12-28T08:58:45.901Z,4.70
2022-12-28T09:01:18.984Z,4.47
2022-12-28T09:03:48.187Z,4.45
2022-12-28T09:06:17.760Z,3.70
2022-12-28T09:09:03.156Z,3.60
2022-12-28T09:11:32.182Z,3.80
2022-12-28T09:14:01.406Z,3.95
2022-12-28T09:16:28.762Z,3.67
2022-12-28T09:18:58.646Z,3.97
2022-12-28T09:21:28.885Z,4.32
2022-12-28T09:23:56.637Z,4.60
2022-12-28T09:26:25.899Z,4.13
2022-12-28T09:28:55.092Z,3.92
2022-12-28T09:31:23.888Z,3.38
2022-12-28T09:34:35.026Z,3.67
2022-12-28T09:36:49.982Z,3.60
2022-12-28T09:39:19.910Z,3.78
2022-12-28T09:41:53.471Z,4.25
2022-12-28T09:44:41.902Z,4.18
2022-12-28T09:47:27.495Z,5.15
2022-12-28T09:50:30.090Z,5.40
2022-12-28T09:53:24.573Z,4.07
2022-12-28T09:56:06.348Z,5.70
2022-12-28T09:58:37.534Z,5.85
2022-12-28T10:03:43.357Z,6.05
2022-12-28T10:06:13.324Z,6.65
2022-12-28T10:08:46.715Z,4.88
2022-12-28T10:11:37.215Z,6.78
2022-12-28T10:14:18.057Z,8.32
2022-12-28T10:16:48.655Z,8.75
2022-12-28T10:19:23.028Z,6.82
2022-12-28T10:22:01.873Z,6.18
2022-12-28T10:24:31.899Z,7.13
2022-12-28T10:27:01.888Z,6.63
2022-12-28T10:29:32.492Z,5.20
2022-12-28T10:32:04.171Z,4.57
2022-12-28T10:34:34.587Z,5.38
2022-12-28T10:37:16.520Z,5.70
2022-12-28T10:39:56.813Z,5.60
2022-12-28T10:42:46.680Z,6.13
2022-12-28T10:45:23.134Z,8.30
2022-12-28T10:47:53.312Z,10.80
2022-12-28T10:50:55.089Z,10.13
2022-12-28T10:53:40.487Z,10.20
2022-12-28T10:56:13.276Z,13.18
2022-12-28T10:58:51.042Z,11.80
2022-12-28T11:01:30.056Z,11.00
2022-12-28T11:03:57.039Z,9.57
2022-12-28T11:06:29.855Z,9.27
2022-12-28T11:09:13.843Z,9.35
2022-12-28T11:11:41.902Z,10.48
2022-12-28T11:14:33.154Z,10.65
2022-12-28T11:19:48.792Z,9.45
2022-12-28T11:22:23.957Z,9.35
2022-12-28T11:24:51.049Z,9.63
2022-12-28T11:27:21.981Z,10.20
2022-12-28T11:29:51.460Z,6.22
2022-12-28T11:32:25.418Z,6.78
2022-12-28T11:34:54.685Z,7.38
2022-12-28T11:37:21.979Z,6.55
2022-12-28T11:39:52.271Z,6.97
2022-12-28T11:42:40.292Z,6.25
2022-12-28T11:45:15.368Z,7.38
2022-12-28T11:47:42.537Z,6.43
2022-12-28T11:50:34.653Z,6.55
2022-12-28T11:53:05.632Z,7.05
2022-12-28T11:56:02.070Z,7.95
2022-12-28T11:58:31.741Z,7.20
2022-12-28T12:01:00.195Z,7.10
2022-12-28T12:03:58.056Z,7.50
2022-12-28T12:06:43.236Z,7.78
2022-12-28T12:09:22.138Z,7.70
2022-12-28T12:11:51.060Z,7.72
2022-12-28T12:14:36.404Z,8.13
2022-12-28T12:17:11.744Z,8.52
2022-12-28T12:19:42.718Z,8.18
2022-12-28T12:22:09.588Z,7.18
2022-12-28T12:24:45.970Z,7.35
2022-12-28T12:27:19.105Z,7.10
2022-12-28T12:29:51.852Z,7.68
2022-12-28T12:32:31.305Z,7.40
2022-12-28T12:35:08.338Z,7.32
2022-12-28T12:37:50.504Z,7.53
2022-12-28T12:40:32.400Z,6.10
2022-12-28T12:43:08.078Z,6.13
2022-12-28T12:45:40.878Z,6.97
2022-12-28T12:48:32.994Z,6.63
2022-12-28T12:51:31.359Z,6.88
2022-12-28T12:54:10.593Z,6.97
2022-12-28T12:56:53.033Z,6.57
2022-12-28T12:59:55.739Z,5.93
2022-12-28T13:03:00.634Z,6.20
2022-12-28T13:05:29.746Z,5.88
2022-12-28T13:07:58.278Z,6.10
2022-12-28T13:10:45.523Z,6.00
2022-12-28T13:13:25.596Z,6.65
2022-12-28T13:15:54.300Z,6.20
2022-12-28T13:21:20.462Z,6.90
2022-12-28T13:23:47.807Z,6.30
2022-12-28T13:26:19.351Z,6.00
2022-12-28T13:28:58.560Z,6.22
2022-12-28T13:31:42.521Z,6.75
2022-12-28T13:34:30.469Z,7.32
2022-12-28T13:37:02.271Z,9.18
2022-12-28T13:39:40.031Z,7.00
2022-12-28T13:42:29.809Z,7.82
2022-12-28T13:45:03.022Z,8.48
2022-12-28T13:47:43.899Z,8.65
2022-12-28T13:50:24.675Z,9.82
2022-12-28T13:52:57.139Z,10.07
2022-12-28T13:55:35.913Z,10.65
2022-12-28T13:58:07.915Z,10.57
2022-12-28T14:00:38.309Z,7.70
2022-12-28T14:03:11.660Z,13.50
2022-12-28T14:05:43.541Z,9.32
2022-12-28T14:08:11.212Z,9.50
2022-12-28T14:10:38.203Z,9.00
2022-12-28T14:13:06.840Z,10.80
2022-12-28T14:15:41.056Z,11.35
2022-12-28T14:18:09.975Z,10.20
2022-12-28T14:20:51.575Z,13.52
2022-12-28T14:23:39.143Z,11.02
2022-12-28T14:26:18.317Z,14.52
2022-12-28T14:28:48.840Z,10.85
2022-12-28T14:31:22.005Z,16.08
2022-12-28T14:34:00.975Z,10.50
2022-12-28T14:36:47.729Z,13.18
2022-12-28T14:39:35.377Z,9.45
2022-12-28T14:42:05.453Z,9.32
2022-12-28T14:44:38.740Z,7.95
2022-12-28T14:47:33.351Z,7.90
2022-12-28T14:50:02.181Z,8.90
2022-12-28T14:52:43.005Z,8.40
2022-12-28T14:55:33.423Z,8.52
2022-12-28T14:58:07.931Z,9.07
2022-12-28T15:00:37.102Z,9.93
2022-12-28T15:03:21.956Z,10.40
2022-12-28T15:05:54.577Z,10.70
2022-12-28T15:08:23.179Z,11.23
2022-12-28T15:10:55.752Z,11.48
2022-12-28T15:13:24.854Z,12.25
2022-12-28T15:15:57.097Z,12.75
2022-12-28T15:18:24.462Z,12.75
2022-12-28T15:20:51.501Z,13.27
2022-12-28T15:23:18.602Z,12.43
2022-12-28T15:25:45.793Z,14.10
2022-12-28T15:28:12.730Z,14.85
2022-12-28T15:30:41.799Z,14.27
2022-12-28T15:33:09.712Z,14.45
2022-12-28T15:35:36.813Z,13.27
2022-12-28T15:38:04.144Z,13.20
2022-12-28T15:40:31.132Z,13.35
2022-12-28T15:42:58.149Z,15.80
2022-12-28T15:45:25.222Z,14.93
2022-12-28T15:47:55.408Z,15.70
2022-12-28T15:50:22.421Z,15.18
2022-12-28T15:52:49.735Z,15.13
2022-12-28T15:55:17.673Z,16.05
2022-12-28T15:57:44.727Z,15.35
2022-12-28T16:00:18.189Z,15.18
2022-12-28T16:02:45.967Z,15.80
2022-12-28T16:05:13.047Z,14.80
2022-12-28T16:07:39.975Z,15.55
2022-12-28T16:10:07.384Z,16.33
2022-12-28T16:12:34.474Z,16.83
2022-12-28T16:15:01.550Z,16.20
2022-12-28T16:17:28.453Z,16.88
2022-12-28T16:19:55.385Z,16.17
2022-12-28T16:22:22.436Z,16.75
2022-12-28T16:24:49.446Z,15.63
2022-12-28T16:27:16.411Z,16.63
2022-12-28T16:29:45.976Z,16.50
2022-12-28T16:32:13.181Z,17.13
2022-12-28T16:34:40.141Z,15.68
2022-12-28T16:37:07.152Z,16.25
2022-12-28T16:39:34.142Z,17.73
2022-12-28T16:42:01.090Z,15.60
2022-12-28T16:44:29.457Z,16.38
2022-12-28T16:47:01.002Z,17.27
2022-12-28T16:49:29.694Z,16.90
2022-12-28T16:51:56.779Z,16.92
2022-12-28T16:54:25.184Z,16.55
2022-12-28T16:56:53.397Z,16.35
2022-12-28T16:59:28.459Z,15.65
2022-12-28T17:01:57.034Z,15.95
2022-12-28T17:04:24.316Z,16.77
2022-12-28T17:06:52.280Z,16.67
2022-12-28T17:09:20.476Z,15.68
2022-12-28T17:11:49.402Z,15.52
2022-12-28T17:14:29.293Z,15.85
2022-12-28T17:17:03.250Z,14.93
2022-12-28T17:19:30.189Z,14.70
2022-12-28T17:21:57.121Z,14.73
2022-12-28T17:24:24.143Z,16.00
2022-12-28T17:26:51.210Z,15.00
2022-12-28T17:29:18.188Z,15.13
2022-12-28T17:31:45.224Z,14.18
2022-12-28T17:34:12.217Z,15.80
2022-12-28T17:36:39.514Z,14.68
2022-12-28T17:39:06.438Z,14.20
2022-12-28T17:41:33.446Z,16.13
2022-12-28T17:44:00.928Z,14.98
2022-12-28T17:46:30.008Z,14.32
2022-12-28T17:48:58.524Z,15.68
2022-12-28T17:51:26.464Z,14.60
2022-12-28T17:53:55.743Z,14.10
2022-12-28T17:56:22.697Z,14.32
2022-12-28T17:58:55.868Z,14.57
2022-12-28T18:01:23.297Z,14.48
2022-12-28T18:03:50.339Z,13.82
2022-12-28T18:06:17.317Z,13.65
2022-12-28T18:08:44.643Z,14.57
2022-12-28T18:11:11.727Z,14.20
2022-12-28T18:13:40.085Z,14.32
2022-12-28T18:16:08.738Z,13.23
2022-12-28T18:18:35.655Z,13.48
2022-12-28T18:21:09.087Z,23.63
2022-12-28T18:23:36.024Z,13.57
2022-12-28T18:26:03.698Z,12.57
2022-12-28T18:28:34.085Z,13.45
2022-12-28T18:31:02.688Z,13.52
2022-12-28T18:33:31.139Z,12.95
2022-12-28T18:35:59.516Z,12.15
2022-12-28T18:38:26.497Z,12.82
2022-12-28T18:40:55.827Z,12.90
2022-12-28T18:43:26.008Z,12.85
2022-12-28T18:45:57.973Z,12.35
2022-12-28T18:48:25.833Z,13.77
2022-12-28T18:50:59.781Z,14.05
2022-12-28T18:53:27.886Z,13.48
2022-12-28T18:55:59.889Z,14.15
2022-12-28T18:58:28.308Z,15.40
2022-12-28T19:01:05.034Z,13.95
2022-12-28T19:03:32.513Z,14.20
2022-12-28T19:06:03.171Z,14.43
2022-12-28T19:08:31.543Z,14.52
2022-12-28T19:10:58.716Z,13.60
2022-12-28T19:13:25.623Z,15.35
2022-12-28T19:15:52.661Z,14.55
2022-12-28T19:18:20.254Z,14.30
2022-12-28T19:20:47.187Z,15.13
2022-12-28T19:23:14.299Z,15.15
2022-12-28T19:25:41.193Z,14.88
2022-12-28T19:28:08.448Z,14.75
2022-12-28T19:30:35.363Z,14.85
2022-12-28T19:33:02.339Z,15.73
2022-12-28T19:35:29.251Z,15.40
2022-12-28T19:37:56.133Z,16.08
2022-12-28T19:40:23.022Z,16.38
2022-12-28T19:42:49.886Z,16.20
2022-12-28T19:45:18.218Z,14.98
2022-12-28T19:47:45.120Z,15.07
2022-12-28T19:50:12.078Z,15.35
2022-12-28T19:52:39.026Z,16.00
2022-12-28T19:55:06.188Z,14.60
2022-12-28T19:57:33.113Z,15.75
2022-12-28T19:59:59.968Z,16.40
2022-12-28T20:02:27.039Z,14.95
2022-12-28T20:04:54.591Z,16.20
2022-12-28T20:07:21.480Z,15.27
2022-12-28T20:09:51.831Z,16.67
2022-12-28T20:12:24.909Z,15.85
2022-12-28T20:14:51.793Z,15.70
2022-12-28T20:17:18.651Z,17.15
2022-12-28T20:19:45.613Z,15.68
2022-12-28T20:22:12.501Z,17.98
2022-12-28T20:24:39.357Z,15.88
2022-12-28T20:27:06.240Z,16.23
2022-12-28T20:29:33.442Z,16.98
2022-12-28T20:32:00.367Z,17.23
2022-12-28T20:34:27.567Z,16.50
2022-12-28T20:36:54.490Z,17.40
2022-12-28T20:39:21.456Z,16.33
2022-12-28T20:42:06.834Z,17.20
2022-12-28T20:44:34.316Z,15.88
2022-12-28T20:47:02.187Z,17.25
2022-12-28T20:49:31.464Z,18.70
2022-12-28T20:51:58.458Z,16.80
2022-12-28T20:54:25.759Z,18.90
2022-12-28T20:56:55.904Z,18.88
2022-12-28T20:59:25.040Z,19.30
2022-12-28T21:01:52.537Z,18.52
2022-12-28T21:04:19.559Z,18.58
2022-12-28T21:06:46.588Z,20.50
2022-12-28T21:09:13.519Z,19.38
2022-12-28T21:11:40.421Z,19.75
2022-12-28T21:14:07.314Z,19.73
2022-12-28T21:16:34.407Z,20.15
2022-12-28T21:19:01.470Z,19.92
2022-12-28T21:21:28.491Z,19.40
2022-12-28T21:23:55.472Z,20.65
2022-12-28T21:26:22.764Z,20.30
2022-12-28T21:28:49.777Z,22.33
2022-12-28T21:31:16.726Z,22.05
2022-12-28T21:33:43.672Z,22.23
2022-12-28T21:36:10.514Z,21.38
2022-12-28T21:38:39.973Z,21.65
2022-12-28T21:41:12.654Z,21.40
2022-12-28T21:43:40.017Z,22.88
2022-12-28T21:46:15.047Z,21.55
2022-12-28T21:48:42.754Z,21.55
2022-12-28T21:51:30.919Z,22.45
2022-12-28T21:54:04.286Z,22.92
2022-12-28T21:56:32.362Z,23.05
2022-12-28T21:59:00.774Z,23.13
2022-12-28T22:01:46.416Z,23.58
2022-12-28T22:04:37.394Z,23.02
2022-12-28T22:07:06.239Z,21.92
2022-12-28T22:09:55.271Z,23.70
2022-12-28T22:12:34.883Z,23.23
2022-12-28T22:15:27.691Z,22.42
2022-12-28T22:17:58.773Z,23.75
2022-12-28T22:20:27.019Z,23.52
2022-12-28T22:22:56.454Z,23.45
2022-12-28T22:25:24.587Z,22.65
2022-12-28T22:27:51.627Z,23.27
2022-12-28T22:30:18.576Z,23.40
2022-12-28T22:32:45.468Z,23.63
2022-12-28T22:35:12.622Z,22.98
2022-12-28T22:37:39.976Z,22.83
2022-12-28T22:40:07.280Z,22.88
2022-12-28T22:42:34.254Z,22.95
2022-12-28T22:45:01.140Z,22.80
2022-12-28T22:47:28.282Z,23.35
2022-12-28T22:49:55.429Z,21.42
2022-12-28T22:52:22.358Z,23.15
2022-12-28T22:54:49.317Z,23.42
2022-12-28T22:57:16.191Z,22.02
2022-12-28T22:59:43.119Z,21.88
2022-12-28T23:02:10.203Z,22.00
2022-12-28T23:04:37.181Z,22.83
2022-12-28T23:07:04.579Z,21.92
2022-12-28T23:09:32.017Z,23.45
2022-12-28T23:11:59.076Z,22.73
2022-12-28T23:14:44.693Z,23.23
2022-12-28T23:17:17.153Z,22.73
2022-12-28T23:20:04.281Z,22.45
2022-12-28T23:22:52.087Z,22.88
2022-12-28T23:25:41.227Z,22.65
2022-12-28T23:28:10.653Z,23.83
2022-12-28T23:30:39.617Z,23.13
2022-12-28T23:33:06.528Z,22.95
2022-12-28T23:35:33.567Z,21.55
2022-12-28T23:38:00.455Z,23.05
2022-12-28T23:40:28.079Z,22.95
2022-12-28T23:42:55.038Z,22.63
2022-12-28T23:45:22.248Z,22.65
2022-12-28T23:47:51.978Z,24.40
2022-12-28T23:50:19.474Z,28.73
2022-12-28T23:52:46.527Z,23.25
2022-12-28T23:55:15.763Z,22.42
2022-12-28T23:57:42.735Z,23.70
